createdAt,value
2022-12-13T00:01:28.254Z,22.05
2022-12-13T00:03:57.332Z,24.95
2022-12-13T00:06:25.462Z,22.58
2022-12-13T00:08:53.722Z,22.17
2022-12-13T00:11:21.494Z,24.90
2022-12-13T00:13:49.411Z,22.13
2022-12-13T00:16:19.360Z,22.02
2022-12-13T00:18:47.970Z,22.30
2022-12-13T00:21:18.043Z,22.73
2022-12-13T00:23:46.238Z,18.48
2022-12-13T00:26:22.973Z,20.73
2022-12-13T00:28:51.341Z,22.92
2022-12-13T00:31:53.437Z,22.13
2022-12-13T00:34:07.702Z,20.80
2022-12-13T00:36:35.363Z,23.83
2022-12-13T00:39:02.792Z,22.13
2022-12-13T00:41:35.662Z,22.50
2022-12-13T00:44:04.239Z,23.02
2022-12-13T00:46:32.379Z,23.30
2022-12-13T00:49:01.118Z,26.85
2022-12-13T00:51:29.943Z,23.40
2022-12-13T00:53:57.576Z,23.20
2022-12-13T00:56:26.721Z,26.30
2022-12-13T00:58:54.753Z,22.25
2022-12-13T01:01:25.051Z,25.00
2022-12-13T01:03:58.216Z,23.70
2022-12-13T01:06:30.042Z,23.13
2022-12-13T01:08:57.499Z,22.83
2022-12-13T01:11:25.755Z,20.77
2022-12-13T01:13:53.394Z,24.87
2022-12-13T01:16:21.604Z,24.00
2022-12-13T01:18:49.103Z,23.25
2022-12-13T01:21:18.718Z,22.23
2022-12-13T01:23:46.270Z,24.25
2022-12-13T01:26:16.108Z,22.42
2022-12-13T01:28:44.223Z,20.25
2022-12-13T01:31:14.188Z,22.90
2022-12-13T01:33:42.432Z,20.50
2022-12-13T01:36:13.626Z,21.02
2022-12-13T01:38:41.036Z,22.10
2022-12-13T01:41:17.724Z,20.98
2022-12-13T01:43:53.140Z,20.90
2022-12-13T01:46:20.802Z,19.87
2022-12-13T01:49:19.801Z,21.75
2022-12-13T01:51:54.925Z,20.62
2022-12-13T01:54:33.460Z,21.77
2022-12-13T01:57:04.488Z,20.33
2022-12-13T01:59:33.883Z,21.15
2022-12-13T02:02:01.631Z,20.23
2022-12-13T02:04:34.006Z,17.98
2022-12-13T02:07:01.837Z,19.98
2022-12-13T02:09:29.557Z,19.40
2022-12-13T02:11:56.917Z,21.65
2022-12-13T02:14:24.263Z,21.77
2022-12-13T02:17:09.430Z,21.00
2022-12-13T02:20:01.514Z,20.75
2022-12-13T02:23:05.359Z,23.77
2022-12-13T02:26:03.786Z,22.80
2022-12-13T02:28:43.366Z,22.00
2022-12-13T02:31:15.116Z,25.00
2022-12-13T02:33:53.375Z,21.02
2022-12-13T02:36:35.923Z,23.70
2022-12-13T02:39:10.894Z,21.60
2022-12-13T02:41:47.988Z,23.15
2022-12-13T02:44:30.833Z,25.23
2022-12-13T02:47:03.152Z,24.50
2022-12-13T02:49:33.422Z,23.42
2022-12-13T02:52:02.498Z,24.33
2022-12-13T02:54:30.576Z,24.52
2022-12-13T02:56:59.734Z,22.90
2022-12-13T02:59:38.778Z,24.33
2022-12-13T03:02:31.756Z,26.58
2022-12-13T03:05:34.513Z,24.92
2022-12-13T03:08:20.176Z,24.55
2022-12-13T03:11:04.715Z,28.60
2022-12-13T03:13:51.174Z,26.37
2022-12-13T03:16:26.141Z,25.67
2022-12-13T03:18:57.935Z,30.37
2022-12-13T03:21:25.813Z,24.33
2022-12-13T03:23:53.343Z,27.77
2022-12-13T03:26:24.305Z,27.37
2022-12-13T03:28:52.494Z,28.23
2022-12-13T03:31:20.276Z,24.87
2022-12-13T03:33:48.011Z,25.77
2022-12-13T03:36:16.650Z,26.98
2022-12-13T03:38:44.946Z,25.85
2022-12-13T03:41:16.889Z,27.00
2022-12-13T03:43:44.749Z,40.42
2022-12-13T03:46:12.652Z,33.03
2022-12-13T03:48:40.445Z,32.80
2022-12-13T03:51:07.802Z,35.60
2022-12-13T03:53:35.216Z,35.20
2022-12-13T03:56:05.185Z,31.50
2022-12-13T03:58:36.451Z,32.20
2022-12-13T04:01:06.910Z,29.25
2022-12-13T04:03:35.377Z,26.58
2022-12-13T04:06:03.880Z,27.42
2022-12-13T04:08:31.279Z,29.33
2022-12-13T04:10:58.985Z,30.23
2022-12-13T04:13:35.206Z,30.17
2022-12-13T04:16:03.258Z,27.27
2022-12-13T04:18:30.837Z,25.73
2022-12-13T04:20:58.279Z,25.67
2022-12-13T04:23:25.926Z,27.50
2022-12-13T04:25:53.301Z,51.37
2022-12-13T04:28:22.450Z,60.20
2022-12-13T04:30:53.430Z,53.35
2022-12-13T04:33:22.702Z,47.83
2022-12-13T04:35:50.583Z,33.90
2022-12-13T04:38:17.939Z,44.72
2022-12-13T04:40:45.500Z,44.47
2022-12-13T04:43:13.146Z,45.63
2022-12-13T04:45:40.726Z,44.05
2022-12-13T04:48:08.515Z,32.35
2022-12-13T04:50:36.918Z,32.67
2022-12-13T04:53:04.316Z,31.92
2022-12-13T04:55:31.699Z,33.30
2022-12-13T04:57:59.363Z,49.05
2022-12-13T05:00:26.791Z,40.80
2022-12-13T05:02:54.276Z,29.55
2022-12-13T05:05:22.519Z,28.48
2022-12-13T05:07:49.953Z,25.08
2022-12-13T05:10:32.123Z,28.15
2022-12-13T05:13:04.188Z,45.15
2022-12-13T05:15:31.664Z,38.80
2022-12-13T05:18:10.273Z,34.60
2022-12-13T05:20:39.853Z,31.33
2022-12-13T05:23:07.332Z,28.83
2022-12-13T05:25:37.066Z,39.67
2022-12-13T05:28:09.107Z,42.80
2022-12-13T05:30:56.101Z,41.05
2022-12-13T05:33:24.557Z,30.98
2022-12-13T05:35:56.324Z,34.58
2022-12-13T05:38:27.009Z,37.15
2022-12-13T05:40:54.459Z,37.70
2022-12-13T05:43:22.206Z,41.37
2022-12-13T05:45:50.891Z,56.08
2022-12-13T05:48:24.942Z,52.05
2022-12-13T05:51:10.858Z,43.25
2022-12-13T05:53:42.313Z,36.33
2022-12-13T05:56:10.974Z,36.33
2022-12-13T05:58:39.722Z,34.92
2022-12-13T06:01:08.748Z,33.00
2022-12-13T06:03:36.736Z,33.00
2022-12-13T06:06:05.006Z,32.42
2022-12-13T06:08:32.987Z,33.63
2022-12-13T06:11:11.759Z,30.12
2022-12-13T06:13:43.744Z,32.20
2022-12-13T06:16:22.965Z,29.73
2022-12-13T06:18:59.453Z,26.55
2022-12-13T06:21:40.676Z,24.27
2022-12-13T06:24:11.205Z,27.08
2022-12-13T06:26:38.864Z,28.58
2022-12-13T06:29:06.236Z,29.02
2022-12-13T06:31:33.732Z,27.17
2022-12-13T06:34:14.556Z,27.25
2022-12-13T06:36:43.144Z,26.67
2022-12-13T06:39:10.821Z,25.00
2022-12-13T06:41:38.367Z,29.63
2022-12-13T06:44:05.736Z,27.60
2022-12-13T06:46:33.786Z,40.67
2022-12-13T06:49:01.549Z,39.85
2022-12-13T06:51:33.133Z,38.00
2022-12-13T06:54:04.885Z,34.88
2022-12-13T06:56:32.786Z,38.35
2022-12-13T06:59:01.714Z,37.75
2022-12-13T07:01:36.804Z,33.65
2022-12-13T07:04:29.943Z,29.73
2022-12-13T07:07:01.226Z,30.27
2022-12-13T07:09:32.701Z,32.15
2022-12-13T07:12:00.439Z,35.90
2022-12-13T07:14:27.925Z,39.22
2022-12-13T07:17:02.882Z,37.33
2022-12-13T07:19:35.185Z,36.63
2022-12-13T07:22:05.978Z,37.17
2022-12-13T07:24:36.831Z,37.67
2022-12-13T07:27:04.622Z,37.10
2022-12-13T07:29:31.969Z,33.35
2022-12-13T07:32:01.668Z,41.30
2022-12-13T07:34:30.515Z,33.53
2022-12-13T07:36:58.201Z,29.08
2022-12-13T07:39:26.302Z,28.02
2022-12-13T07:41:55.622Z,30.70
2022-12-13T07:44:24.183Z,35.13
2022-12-13T07:46:52.396Z,36.17
2022-12-13T07:49:19.924Z,59.80
2022-12-13T07:51:48.056Z,94.20
2022-12-13T07:54:15.806Z,92.55
2022-12-13T07:56:43.288Z,50.60
2022-12-13T07:59:11.070Z,32.85
2022-12-13T08:01:38.936Z,33.55
2022-12-13T08:04:06.810Z,31.10
2022-12-13T08:06:37.990Z,47.42
2022-12-13T08:09:06.069Z,32.72
2022-12-13T08:11:34.562Z,29.63
2022-12-13T08:14:01.952Z,189.20
2022-12-13T08:16:30.513Z,82.32
2022-12-13T08:19:02.913Z,59.92
2022-12-13T08:24:25.291Z,31.17
2022-12-13T08:26:56.930Z,23.73
2022-12-13T08:29:34.006Z,25.40
2022-12-13T08:32:09.169Z,25.35
2022-12-13T08:34:37.209Z,34.42
2022-12-13T08:37:05.287Z,35.88
2022-12-13T08:39:37.206Z,30.50
2022-12-13T08:42:18.904Z,27.23
2022-12-13T08:44:51.573Z,27.60
2022-12-13T08:47:22.915Z,25.08
2022-12-13T08:50:01.527Z,23.10
2022-12-13T08:52:40.136Z,22.92
2022-12-13T08:55:10.730Z,25.50
2022-12-13T08:57:39.555Z,21.87
2022-12-13T09:00:08.354Z,25.55
2022-12-13T09:02:38.118Z,27.20
2022-12-13T09:05:07.989Z,23.92
2022-12-13T09:07:36.343Z,25.60
2022-12-13T09:10:25.983Z,26.83
2022-12-13T09:13:01.717Z,27.15
2022-12-13T09:15:34.097Z,23.50
2022-12-13T09:18:04.971Z,27.37
2022-12-13T09:20:40.914Z,28.40
2022-12-13T09:23:14.221Z,27.62
2022-12-13T09:25:56.041Z,26.33
2022-12-13T09:28:33.090Z,27.90
2022-12-13T09:31:00.631Z,22.10
2022-12-13T09:33:29.869Z,23.67
2022-12-13T09:36:01.260Z,23.35
2022-12-13T09:38:29.293Z,23.50
2022-12-13T09:40:59.522Z,21.87
2022-12-13T09:43:33.847Z,24.67
2022-12-13T09:46:34.235Z,18.12
2022-12-13T09:49:39.211Z,18.45
2022-12-13T09:52:11.628Z,17.98
2022-12-13T09:54:48.255Z,16.42
2022-12-13T09:57:32.095Z,16.02
2022-12-13T10:00:04.595Z,14.98
2022-12-13T10:02:44.472Z,16.48
2022-12-13T10:05:35.852Z,18.30
2022-12-13T10:08:07.444Z,15.63
2022-12-13T10:10:35.243Z,15.07
2022-12-13T10:13:14.392Z,14.60
2022-12-13T10:15:43.504Z,16.75
2022-12-13T10:18:13.342Z,17.42
2022-12-13T10:20:42.114Z,15.20
2022-12-13T10:26:03.056Z,17.10
2022-12-13T10:28:32.590Z,17.40
2022-12-13T10:31:00.809Z,16.58
2022-12-13T10:33:33.068Z,16.50
2022-12-13T10:36:16.228Z,18.05
2022-12-13T10:38:45.950Z,15.20
2022-12-13T10:41:30.622Z,15.45
2022-12-13T10:44:22.513Z,15.43
2022-12-13T10:47:11.802Z,19.75
2022-12-13T10:49:49.907Z,18.62
2022-12-13T10:52:30.826Z,21.70
2022-12-13T10:55:04.611Z,16.02
2022-12-13T10:57:57.438Z,15.73
2022-12-13T11:00:38.058Z,15.80
2022-12-13T11:03:06.916Z,14.45
2022-12-13T11:05:35.825Z,14.23
2022-12-13T11:08:32.862Z,14.00
2022-12-13T11:11:02.495Z,9.88
2022-12-13T11:13:44.150Z,13.48
2022-12-13T11:16:31.839Z,10.50
2022-12-13T11:19:20.321Z,10.93
2022-12-13T11:21:49.440Z,8.98
2022-12-13T11:24:33.364Z,8.60
2022-12-13T11:27:19.869Z,9.80
2022-12-13T11:30:37.824Z,9.45
2022-12-13T11:33:29.963Z,9.40
2022-12-13T11:36:08.628Z,10.20
2022-12-13T11:38:58.040Z,9.98
2022-12-13T11:41:32.424Z,11.32
2022-12-13T11:44:19.833Z,10.85
2022-12-13T11:46:51.914Z,11.38
2022-12-13T11:49:33.445Z,12.75
2022-12-13T11:52:06.010Z,11.05
2022-12-13T11:54:50.659Z,13.10
2022-12-13T11:57:49.539Z,11.30
2022-12-13T12:00:36.665Z,12.20
2022-12-13T12:03:19.666Z,13.73
2022-12-13T12:05:55.769Z,9.00
2022-12-13T12:08:35.286Z,9.82
2022-12-13T12:11:17.897Z,10.13
2022-12-13T12:14:11.816Z,10.15
2022-12-13T12:16:43.602Z,7.70
2022-12-13T12:19:14.151Z,12.02
2022-12-13T12:22:16.314Z,10.38
2022-12-13T12:25:02.595Z,9.45
2022-12-13T12:27:39.067Z,8.93
2022-12-13T12:30:31.824Z,8.93
2022-12-13T12:33:10.180Z,75.87
2022-12-13T12:35:59.716Z,13.18
2022-12-13T12:38:52.960Z,9.38
2022-12-13T12:41:45.676Z,10.93
2022-12-13T12:44:22.114Z,17.10
2022-12-13T12:50:28.615Z,11.30
2022-12-13T12:53:16.504Z,9.23
2022-12-13T12:55:56.097Z,9.85
2022-12-13T12:58:50.659Z,11.15
2022-12-13T13:01:53.835Z,10.65
2022-12-13T13:04:29.813Z,11.15
2022-12-13T13:07:01.768Z,12.05
2022-12-13T13:09:30.239Z,13.40
2022-12-13T13:11:57.873Z,14.20
2022-12-13T13:14:37.088Z,11.98
2022-12-13T13:17:17.081Z,10.20
2022-12-13T13:20:12.124Z,9.63
2022-12-13T13:25:31.165Z,10.57
2022-12-13T13:28:05.385Z,9.65
2022-12-13T13:30:33.419Z,8.87
2022-12-13T13:33:01.117Z,12.73
2022-12-13T13:35:33.167Z,13.52
2022-12-13T13:38:27.935Z,9.77
2022-12-13T13:40:55.296Z,12.80
2022-12-13T13:43:32.512Z,11.60
2022-12-13T13:46:11.559Z,14.35
2022-12-13T13:49:03.888Z,13.10
2022-12-13T13:52:23.932Z,10.23
2022-12-13T13:54:56.106Z,12.05
2022-12-13T14:00:56.230Z,10.88
2022-12-13T14:04:08.080Z,12.45
2022-12-13T14:07:22.069Z,14.43
2022-12-13T14:12:56.305Z,10.27
2022-12-13T14:15:57.893Z,10.15
2022-12-13T14:18:31.409Z,11.48
2022-12-13T14:21:08.403Z,12.27
2022-12-13T14:24:01.340Z,14.43
2022-12-13T14:26:38.237Z,18.62
2022-12-13T14:29:19.172Z,14.25
2022-12-13T14:31:48.251Z,17.02
2022-12-13T14:34:30.048Z,14.43
2022-12-13T14:37:03.191Z,15.70
2022-12-13T14:39:31.491Z,18.95
2022-12-13T14:42:00.169Z,17.15
2022-12-13T14:44:29.985Z,16.83
2022-12-13T14:47:02.675Z,17.35
2022-12-13T14:49:39.551Z,23.10
2022-12-13T14:52:08.768Z,29.02
2022-12-13T14:54:48.889Z,41.15
2022-12-13T14:57:19.124Z,45.12
2022-12-13T14:59:50.386Z,48.80
2022-12-13T15:02:30.942Z,50.15
2022-12-13T15:05:01.944Z,51.50
2022-12-13T15:07:33.754Z,52.25
2022-12-13T15:10:28.349Z,56.67
2022-12-13T15:12:55.949Z,118.70
2022-12-13T15:15:32.670Z,95.70
2022-12-13T15:18:23.003Z,69.43
2022-12-13T15:20:53.965Z,72.37
2022-12-13T15:23:30.713Z,77.15
2022-12-13T15:26:13.183Z,48.67
2022-12-13T15:28:59.042Z,54.17
2022-12-13T15:31:26.886Z,52.50
2022-12-13T15:34:01.093Z,44.20
2022-12-13T15:38:56.878Z,50.28
2022-12-13T15:41:36.844Z,46.55
2022-12-13T15:44:08.061Z,46.70
2022-12-13T15:46:38.151Z,44.60
2022-12-13T15:49:07.988Z,42.95
2022-12-13T15:51:53.848Z,46.80
2022-12-13T15:54:23.915Z,44.30
2022-12-13T15:57:17.558Z,51.63
2022-12-13T15:59:45.955Z,61.22
2022-12-13T16:02:20.537Z,56.25
2022-12-13T16:04:49.059Z,59.55
2022-12-13T16:07:29.975Z,50.08
2022-12-13T16:09:57.856Z,47.78
2022-12-13T16:12:38.606Z,41.72
2022-12-13T16:15:28.953Z,41.35
2022-12-13T16:18:16.550Z,42.42
2022-12-13T16:20:46.408Z,44.00
2022-12-13T16:23:26.603Z,50.95
2022-12-13T16:25:56.512Z,45.88
2022-12-13T16:28:26.190Z,41.90
2022-12-13T16:30:53.849Z,45.88
2022-12-13T16:33:27.534Z,51.45
2022-12-13T16:35:56.014Z,50.53
2022-12-13T16:38:26.648Z,47.00
2022-12-13T16:40:56.300Z,64.70
2022-12-13T16:43:33.365Z,58.60
2022-12-13T16:47:14.342Z,56.20
2022-12-13T16:48:51.999Z,48.33
2022-12-13T16:51:20.588Z,49.05
2022-12-13T16:53:48.496Z,57.08
2022-12-13T16:56:21.883Z,82.03
2022-12-13T16:58:50.665Z,72.55
2022-12-13T17:01:20.436Z,60.35
2022-12-13T17:03:49.123Z,55.10
2022-12-13T17:06:22.959Z,45.50
2022-12-13T17:08:51.735Z,40.00
2022-12-13T17:11:19.417Z,49.95
2022-12-13T17:13:48.223Z,53.83
2022-12-13T17:16:16.836Z,43.30
2022-12-13T17:18:45.168Z,39.47
2022-12-13T17:21:13.989Z,44.22
2022-12-13T17:23:42.189Z,36.72
2022-12-13T17:26:12.002Z,38.00
2022-12-13T17:28:40.230Z,30.92
2022-12-13T17:31:13.962Z,24.40
2022-12-13T17:33:43.824Z,25.30
2022-12-13T17:36:14.810Z,27.10
2022-12-13T17:38:47.365Z,31.15
2022-12-13T17:41:16.119Z,66.45
2022-12-13T17:43:45.529Z,62.30
2022-12-13T17:46:18.153Z,57.62
2022-12-13T17:48:46.745Z,38.20
2022-12-13T17:51:14.658Z,33.03
2022-12-13T17:53:43.619Z,28.60
2022-12-13T17:56:15.078Z,29.10
2022-12-13T17:58:43.198Z,29.95
2022-12-13T18:01:20.592Z,35.63
2022-12-13T18:03:51.082Z,38.67
2022-12-13T18:06:18.922Z,38.70
2022-12-13T18:08:47.168Z,32.42
2022-12-13T18:11:33.037Z,40.12
2022-12-13T18:14:03.459Z,43.75
2022-12-13T18:16:37.328Z,40.40
2022-12-13T18:19:12.262Z,50.65
2022-12-13T18:21:41.467Z,41.90
2022-12-13T18:24:10.455Z,43.78
2022-12-13T18:26:39.144Z,43.30
2022-12-13T18:29:07.959Z,47.05
2022-12-13T18:31:36.295Z,45.25
2022-12-13T18:34:05.978Z,40.12
2022-12-13T18:36:35.871Z,43.33
2022-12-13T18:39:04.972Z,34.53
2022-12-13T18:41:36.899Z,36.00
2022-12-13T18:44:08.375Z,41.65
2022-12-13T18:46:40.438Z,38.50
2022-12-13T18:49:11.871Z,37.20
2022-12-13T18:51:40.425Z,38.80
2022-12-13T18:54:27.698Z,38.85
2022-12-13T18:56:58.017Z,36.60
2022-12-13T18:59:26.639Z,35.08
2022-12-13T19:01:55.708Z,42.47
2022-12-13T19:04:27.865Z,38.38
2022-12-13T19:06:57.640Z,35.75
2022-12-13T19:09:29.935Z,35.75
2022-12-13T19:11:58.800Z,37.28
2022-12-13T19:14:28.834Z,39.05
2022-12-13T19:16:57.893Z,34.35
2022-12-13T19:19:27.467Z,39.42
2022-12-13T19:21:56.700Z,43.20
2022-12-13T19:24:25.686Z,47.80
2022-12-13T19:26:55.007Z,42.88
2022-12-13T19:29:26.111Z,37.65
2022-12-13T19:31:54.903Z,42.03
2022-12-13T19:34:24.347Z,40.45
2022-12-13T19:36:54.513Z,42.13
2022-12-13T19:39:25.720Z,42.13
2022-12-13T19:41:55.451Z,40.88
2022-12-13T19:44:24.327Z,37.53
2022-12-13T19:46:54.227Z,39.88
2022-12-13T19:49:25.040Z,47.45
2022-12-13T19:51:53.667Z,46.22
2022-12-13T19:54:25.286Z,44.38
2022-12-13T19:57:07.008Z,46.67
2022-12-13T19:59:36.698Z,39.67
2022-12-13T20:02:08.188Z,54.13
2022-12-13T20:04:39.171Z,40.58
2022-12-13T20:07:07.868Z,40.95
2022-12-13T20:09:41.659Z,49.15
2022-12-13T20:12:10.351Z,49.53
2022-12-13T20:14:39.281Z,43.33
2022-12-13T20:17:08.777Z,49.13
2022-12-13T20:19:37.598Z,48.40
2022-12-13T20:22:07.140Z,47.22
2022-12-13T20:24:35.595Z,48.38
2022-12-13T20:27:07.315Z,50.95
2022-12-13T20:29:37.390Z,47.20
2022-12-13T20:32:06.397Z,45.80
2022-12-13T20:34:35.127Z,51.47
2022-12-13T20:37:04.983Z,48.35
2022-12-13T20:39:35.235Z,46.20
2022-12-13T20:42:04.576Z,46.80
2022-12-13T20:44:34.911Z,44.65
2022-12-13T20:47:07.355Z,47.88
2022-12-13T20:49:36.281Z,43.05
2022-12-13T20:52:07.710Z,41.47
2022-12-13T20:54:36.791Z,53.20
2022-12-13T20:57:05.793Z,52.62
2022-12-13T20:59:34.596Z,66.60
2022-12-13T21:02:02.582Z,69.20
2022-12-13T21:04:33.785Z,65.68
2022-12-13T21:07:02.836Z,67.25
2022-12-13T21:09:30.997Z,66.85
2022-12-13T21:11:59.787Z,60.38
2022-12-13T21:14:34.317Z,59.78
2022-12-13T21:17:04.869Z,61.80
2022-12-13T21:19:39.115Z,58.28
2022-12-13T21:22:07.979Z,47.40
2022-12-13T21:24:36.221Z,41.72
2022-12-13T21:27:04.602Z,42.20
2022-12-13T21:29:32.544Z,43.50
2022-12-13T21:32:00.384Z,49.97
2022-12-13T21:34:27.989Z,50.40
2022-12-13T21:36:55.932Z,47.13
2022-12-13T21:39:28.504Z,44.72
2022-12-13T21:41:57.103Z,47.95
2022-12-13T21:44:24.585Z,52.30
2022-12-13T21:49:39.686Z,40.88
2022-12-13T21:52:07.065Z,61.92
2022-12-13T21:54:34.427Z,80.45
2022-12-13T21:57:20.635Z,89.13
2022-12-13T21:59:47.998Z,95.53
2022-12-13T22:02:19.960Z,104.22
2022-12-13T22:04:56.018Z,84.90
2022-12-13T22:07:24.397Z,57.17
2022-12-13T22:09:53.333Z,45.58
2022-12-13T22:12:31.003Z,70.07
2022-12-13T22:14:58.754Z,61.17
2022-12-13T22:17:33.043Z,64.37
2022-12-13T22:20:05.165Z,78.47
2022-12-13T22:22:32.639Z,52.78
2022-12-13T22:25:00.118Z,49.15
2022-12-13T22:27:27.897Z,50.88
2022-12-13T22:29:57.230Z,49.40
2022-12-13T22:32:27.092Z,47.60
2022-12-13T22:34:55.241Z,43.42
2022-12-13T22:37:22.786Z,40.75
2022-12-13T22:39:50.162Z,43.67
2022-12-13T22:42:19.785Z,44.22
2022-12-13T22:44:47.658Z,49.70
2022-12-13T22:47:15.082Z,56.90
2022-12-13T22:49:42.734Z,53.20
2022-12-13T22:52:10.184Z,54.58
2022-12-13T22:54:37.611Z,52.62
2022-12-13T22:57:07.428Z,51.15
2022-12-13T22:59:34.835Z,51.10
2022-12-13T23:02:03.792Z,52.03
2022-12-13T23:04:33.098Z,53.08
2022-12-13T23:07:00.756Z,54.90
2022-12-13T23:09:28.126Z,46.00
2022-12-13T23:12:14.459Z,54.15
2022-12-13T23:14:41.864Z,46.42
2022-12-13T23:17:09.609Z,43.17
2022-12-13T23:19:49.559Z,49.63
2022-12-13T23:22:23.406Z,51.92
2022-12-13T23:24:51.762Z,53.05
2022-12-13T23:27:21.355Z,50.03
2022-12-13T23:29:49.209Z,46.95
2022-12-13T23:32:16.682Z,41.15
2022-12-13T23:34:44.317Z,38.70
2022-12-13T23:37:11.714Z,36.10
2022-12-13T23:39:39.108Z,34.75
2022-12-13T23:42:07.301Z,38.00
2022-12-13T23:44:34.786Z,61.00
2022-12-13T23:47:02.135Z,132.70
2022-12-13T23:49:29.806Z,89.53
2022-12-13T23:51:57.197Z,71.90
2022-12-13T23:54:24.542Z,92.65
2022-12-13T23:56:52.220Z,83.60
2022-12-13T23:59:19.556Z,93.72
